GreenTxt   -   no warnings

Nearby METAR Reports

 

ENZV - Stavanger
Dati ricevuti: 17/01/2019 10:20
Few Clouds
Few Clouds
 Vento da N
Vento: N 24 km/h
Temperatura: 1°C
Temperatura Vento: -4°C
P.to Rugiada: -3°C
Umidità: 75%
Barometro: 995 hPa
Clouds: Few Clouds
Visibility: 10 km
Cloud details: Few Clouds 610 m
2019/01/17 09:20 ENZV 170920Z 36013KT 9999 FEW020CB 01/M03 Q0995 NOSIG
ENBR - Bergen
Dati ricevuti: 17/01/2019 10:20
Few Clouds
Few Clouds
 Vento da NNO
Vento: NNO 17 km/h
Temperatura: -1°C
Temperatura Vento: -6°C
P.to Rugiada: -4°C
Umidità: 80%
Barometro: 997 hPa
Clouds: Few Clouds
Visibility: 10 km
Cloud details: Few Clouds 457 m
2019/01/17 09:20 ENBR 170920Z 34009KT 9999 FEW015 M01/M04 Q0997 NOSIG RMK WIND 1200FT 35011KT
 
ENHD - Haugesund
Dati ricevuti: 17/01/2019 10:20
Nearby showers, Few clouds
Nearby showers, Few clouds
 Vento da N
Vento: N 44 km/h
Temperatura: 2°C
Temperatura Vento: -5°C
P.to Rugiada: -4°C
Umidità: 65%
Barometro: 996 hPa
Summary: Nearby Showers
Clouds: Few Clouds
Visibility: 10 km
Cloud details: Few Clouds 610 m
2019/01/17 09:20 ENHD 170920Z 36024KT 9999 VCSH FEW020CB 02/M04 Q0996
ENCN - Kristiansand
Dati ricevuti: 17/01/2019 10:20
Parz. nuvoloso
Parz. nuvoloso
 Vento da ENE
Vento: ENE 6 km/h
Temperatura: -1°C
P.to Rugiada: -1°C
Umidità: 100%
Barometro: 992 hPa
Clouds: Parz. nuvoloso
Visibility: 10 km
Cloud details: Few Clouds 610 m
Parz. nuvoloso 2134 m
2019/01/17 09:20 ENCN 170920Z 06003KT 9999 FEW020 SCT070 M01/M01 Q0992
 
ENBO - Bodø
Dati ricevuti: 17/01/2019 10:20
Light snow, Showers, Nuvoloso
Light snow, Showers, Nuvoloso
 Vento da E
Vento: E 17 km/h
Temperatura: -8°C
Temperatura Vento: -14°C
P.to Rugiada: -10°C
Umidità: 86%
Barometro: 990 hPa
Summary: Light snow, Showers
Clouds: Molto nuvoloso
Visibility: 10 km
Cloud details: Few Clouds 274 m
Parz. nuvoloso 610 m
Molto nuvoloso 1067 m
2019/01/17 09:20 ENBO 170920Z 09009KT 9999 -SHSN FEW009 SCT020 BKN035 M08/M10 Q0990 TEMPO 1500 SHSNGS VV008
ENKR - Kirkenes
Dati ricevuti: 17/01/2019 10:20
Parz. nuvoloso
Parz. nuvoloso
 Vento da ESE
Vento: ESE 6 km/h
Temperatura: -9°C
P.to Rugiada: -10°C
Umidità: 93%
Barometro: 990 hPa
Clouds: Parz. nuvoloso
Visibility: 10 km
Cloud details: Parz. nuvoloso 1433 m
2019/01/17 09:20 ENKR 170920Z 12003KT 9999 SCT047 M09/M10 Q0990 RMK WIND 731FT 08010KT
 
ENVA - Trondheim
Dati ricevuti: 17/01/2019 10:20
Molto nuvoloso
Molto nuvoloso
 Vento da E
Vento: E 6 km/h
Temperatura: -8°C
P.to Rugiada: -9°C
Umidità: 93%
Barometro: 995 hPa
Clouds: Molto nuvoloso
Visibility: 10 km
Cloud details: Few Clouds 366 m
Molto nuvoloso 549 m
2019/01/17 09:20 ENVA 170920Z 09003KT 9999 FEW012 BKN018 M08/M09 Q0995 TEMPO 2000 -SHSN VV010 RMK WIND 670FT 24004KT
ENGM - Oslo
Dati ricevuti: 17/01/2019 10:20
Sereno
Sereno
 Vento da NO
Vento: NO 7 km/h
Temperatura: -10°C
Temperatura Vento: -14°C
P.to Rugiada: -12°C
Umidità: 85%
Barometro: 991 hPa
Summary: Sereno
Visibility: greater than 10 km
2019/01/17 09:20 ENGM 170920Z 32004KT CAVOK M10/M12 Q0991 NOSIG